K21S

2019-08-23 22:30:07Z

Plaintext report →

Current Status: Clear

Temperature
High32.5 °C90.5 °F
Current29.7 °C85.5 °F
Low23.4 °C74.1 °F
Feels Like34.1 °C93.4 °F
Dewpoint23.4 °C74.1 °F
Winds
Speed and Direction1.7 m/s3.8 mi/h 3 kn22 °
Gust0.0 m/s0.00 mi/h 0 kn
SquallUnavailable
Pressure and Humidity
Pressure At Field Level1012.7 mb29.9 in
Pressure At Sea Level1015.3 mb30.0 in
Pressure Trend-0.6 mb-0.0 in
Pressure Tendency 5
Humidity69 %

Station Alarms & Warnings:

Ceilometer Alarms / Warnings:

Ceilometer Data Missing!
Historical Weather Phenomenon Graphs

Additional Information:

  METAR K21S 232230Z AUTO 02003KT 30/23 A2991 RMK AO2 SLP153 10325 20234
  55005 $=    
Cloud Cover
Layer 1 Undetected
Layer 2 Undetected
Layer 3 Undetected
Winds
2-minute Winds
Minimum0.3 m/s0.67 mi/h 0 kn272 °
Average1.5 m/s3.36 mi/h 2 kn336 °
Maximum4.5 m/s10.07 mi/h 8 kn72 °
10-minute Winds
Minimum0.0 m/s0.00 mi/h 0 kn259 °
Average1.4 m/s3.13 mi/h 2 kn352 °
Maximum4.5 m/s10.07 mi/h 8 kn81 °
Precipitation
Intensity0.00 mm/h0.00 in/h
Rainfall
1-hour Total0.00 mm0.00 in
3-hour Total0.00 mm0.00 in
6-hour Total4.20 mm0.17 in
24-hour Total0.00 mm0.00 in
Precipitation
1-hour Total0.00 mm0.00 in
3-hour Total0.00 mm0.00 in
6-hour Total2.90 mm0.11 in
24-hour Total0.00 mm0.00 in